createdAt,value
2018-11-23T00:01:54.805Z,77.46
2018-11-23T00:04:22.072Z,77.70
2018-11-23T00:06:49.345Z,78.03
2018-11-23T00:09:17.804Z,77.57
2018-11-23T00:11:45.051Z,77.89
2018-11-23T00:14:12.300Z,78.11
2018-11-23T00:16:39.664Z,77.96
2018-11-23T00:19:06.944Z,77.74
2018-11-23T00:21:34.633Z,77.99
2018-11-23T00:24:01.928Z,78.21
2018-11-23T00:26:29.189Z,78.24
2018-11-23T00:28:56.452Z,77.92
2018-11-23T00:31:23.698Z,78.22
2018-11-23T00:33:50.951Z,78.42
2018-11-23T00:36:18.556Z,78.09
2018-11-23T00:38:45.816Z,78.41
2018-11-23T00:41:13.095Z,78.46
2018-11-23T00:43:40.368Z,78.46
2018-11-23T00:46:07.665Z,78.66
2018-11-23T00:48:34.932Z,78.72
2018-11-23T00:51:02.214Z,78.47
2018-11-23T00:53:29.485Z,78.22
2018-11-23T00:55:56.723Z,78.50
2018-11-23T00:58:23.989Z,78.24
2018-11-23T01:00:51.239Z,78.52
2018-11-23T01:03:18.544Z,78.52
2018-11-23T01:05:45.797Z,78.31
2018-11-23T01:08:13.104Z,78.44
2018-11-23T01:10:40.376Z,78.48
2018-11-23T01:13:07.629Z,78.35
2018-11-23T01:15:34.946Z,78.70
2018-11-23T01:18:02.218Z,78.53
2018-11-23T01:20:29.670Z,78.57
2018-11-23T01:22:57.554Z,78.65
2018-11-23T01:25:25.709Z,78.47
2018-11-23T01:27:53.747Z,78.66
2018-11-23T01:30:22.458Z,78.46
2018-11-23T01:32:49.712Z,78.41
2018-11-23T01:35:17.054Z,78.40
2018-11-23T01:37:44.331Z,78.45
2018-11-23T01:40:12.066Z,78.65
2018-11-23T01:42:39.321Z,78.57
2018-11-23T01:45:06.590Z,78.67
2018-11-23T01:47:33.883Z,78.19
2018-11-23T01:50:01.456Z,78.54
2018-11-23T01:52:28.704Z,78.56
2018-11-23T01:54:55.960Z,78.52
2018-11-23T01:57:23.217Z,78.35
2018-11-23T01:59:50.482Z,78.42
2018-11-23T02:02:17.774Z,78.28
2018-11-23T02:04:45.020Z,78.60
2018-11-23T02:07:12.268Z,78.62
2018-11-23T02:09:39.557Z,78.76
2018-11-23T02:12:06.857Z,78.64
2018-11-23T02:14:34.121Z,78.58
2018-11-23T02:17:01.416Z,78.64
2018-11-23T02:19:28.722Z,78.75
2018-11-23T02:21:55.976Z,78.56
2018-11-23T02:24:23.240Z,78.61
2018-11-23T02:26:50.493Z,78.58
2018-11-23T02:29:17.760Z,78.63
2018-11-23T02:31:45.036Z,78.26
2018-11-23T02:34:12.292Z,78.81
2018-11-23T02:36:39.536Z,78.66
2018-11-23T02:39:06.786Z,78.80
2018-11-23T02:41:34.357Z,78.77
2018-11-23T02:44:01.686Z,78.76
2018-11-23T02:46:28.961Z,78.40
2018-11-23T02:48:56.295Z,78.72
2018-11-23T02:51:23.654Z,78.83
2018-11-23T02:53:50.921Z,78.82
2018-11-23T02:56:18.277Z,78.92
2018-11-23T02:58:45.549Z,78.63
2018-11-23T03:01:12.853Z,78.82
2018-11-23T03:03:40.444Z,78.98
2018-11-23T03:06:07.704Z,79.16
2018-11-23T03:08:34.965Z,78.91
2018-11-23T03:11:02.233Z,78.85
2018-11-23T03:13:29.536Z,78.79
2018-11-23T03:15:56.829Z,78.92
2018-11-23T03:18:24.080Z,78.72
2018-11-23T03:20:51.343Z,79.12
2018-11-23T03:23:18.630Z,79.23
2018-11-23T03:25:45.889Z,78.77
2018-11-23T03:28:13.155Z,79.28
2018-11-23T03:30:40.432Z,79.64
2018-11-23T03:33:07.705Z,79.21
2018-11-23T03:35:34.981Z,78.95
2018-11-23T03:38:02.269Z,79.18
2018-11-23T03:40:29.922Z,79.12
2018-11-23T03:42:57.227Z,79.11
2018-11-23T03:45:24.521Z,79.22
2018-11-23T03:47:51.805Z,79.40
2018-11-23T03:50:19.336Z,79.32
2018-11-23T03:52:46.854Z,79.13
2018-11-23T03:55:14.155Z,79.01
2018-11-23T03:57:41.444Z,79.07
2018-11-23T04:00:08.716Z,79.00
2018-11-23T04:02:35.978Z,78.86
2018-11-23T04:05:03.269Z,79.12
2018-11-23T04:07:30.558Z,79.11
2018-11-23T04:09:57.858Z,79.13
2018-11-23T04:12:25.136Z,78.87
2018-11-23T04:14:52.452Z,79.05
2018-11-23T04:17:19.829Z,78.86
2018-11-23T04:19:47.121Z,79.08
2018-11-23T04:22:14.789Z,79.05
2018-11-23T04:24:42.137Z,79.02
2018-11-23T04:27:09.397Z,79.10
2018-11-23T04:29:36.690Z,78.87
2018-11-23T04:32:04.486Z,79.27
2018-11-23T04:34:31.751Z,79.43
2018-11-23T04:36:59.013Z,78.71
2018-11-23T04:39:26.379Z,79.35
2018-11-23T04:41:54.093Z,79.37
2018-11-23T04:44:21.359Z,79.11
2018-11-23T04:46:48.695Z,79.08
2018-11-23T04:49:16.041Z,79.11
2018-11-23T04:51:43.681Z,79.09
2018-11-23T04:54:10.954Z,79.37
2018-11-23T04:56:38.221Z,79.24
2018-11-23T04:59:05.532Z,79.49
2018-11-23T05:01:33.314Z,79.41
2018-11-23T05:04:00.679Z,79.42
2018-11-23T05:06:27.968Z,79.23
2018-11-23T05:08:55.646Z,79.43
2018-11-23T05:11:22.899Z,79.50
2018-11-23T05:13:50.172Z,79.23
2018-11-23T05:16:17.445Z,79.25
2018-11-23T05:18:44.696Z,79.25
2018-11-23T05:21:11.961Z,79.17
2018-11-23T05:23:39.616Z,79.15
2018-11-23T05:26:07.197Z,79.14
2018-11-23T05:28:34.486Z,79.39
2018-11-23T05:31:02.197Z,79.07
2018-11-23T05:33:29.501Z,78.96
2018-11-23T05:35:56.769Z,78.78
2018-11-23T05:38:24.317Z,78.96
2018-11-23T05:40:51.644Z,78.75
2018-11-23T05:43:18.914Z,79.01
2018-11-23T05:45:46.509Z,79.01
2018-11-23T05:48:13.818Z,79.21
2018-11-23T05:50:41.085Z,78.88
2018-11-23T05:53:09.316Z,79.08
2018-11-23T05:55:36.580Z,78.84
2018-11-23T05:58:03.901Z,79.01
2018-11-23T06:00:32.454Z,79.23
2018-11-23T06:02:59.732Z,79.01
2018-11-23T06:05:27.164Z,78.98
2018-11-23T06:07:54.889Z,79.20
2018-11-23T06:10:22.553Z,78.89
2018-11-23T06:12:49.837Z,79.00
2018-11-23T06:15:18.607Z,78.82
2018-11-23T06:17:46.441Z,78.97
2018-11-23T06:20:14.820Z,78.94
2018-11-23T06:22:42.761Z,78.87
2018-11-23T06:25:10.288Z,78.81
2018-11-23T06:27:37.625Z,79.45
2018-11-23T06:30:05.273Z,79.24
2018-11-23T06:32:32.552Z,79.03
2018-11-23T06:35:00.735Z,79.14
2018-11-23T06:37:29.104Z,79.33
2018-11-23T06:39:57.491Z,79.34
2018-11-23T06:42:24.792Z,79.42
2018-11-23T06:44:53.357Z,79.37
2018-11-23T06:47:20.650Z,79.13
2018-11-23T06:49:47.949Z,79.19
2018-11-23T06:52:15.604Z,79.23
2018-11-23T06:54:42.891Z,79.19
2018-11-23T06:57:10.161Z,79.10
2018-11-23T06:59:37.772Z,78.86
2018-11-23T07:02:05.031Z,78.80
2018-11-23T07:04:32.317Z,78.81
2018-11-23T07:07:00.764Z,78.51
2018-11-23T07:09:28.307Z,78.44
2018-11-23T07:11:55.568Z,78.55
2018-11-23T07:14:23.339Z,78.90
2018-11-23T07:16:50.616Z,78.57
2018-11-23T07:19:17.896Z,78.49
2018-11-23T07:21:45.512Z,78.52
2018-11-23T07:24:12.790Z,78.65
2018-11-23T07:26:40.064Z,78.84
2018-11-23T07:29:07.780Z,78.44
2018-11-23T07:31:35.822Z,78.73
2018-11-23T07:34:03.086Z,78.35
2018-11-23T07:36:30.788Z,78.70
2018-11-23T07:38:59.416Z,78.46
2018-11-23T07:41:26.668Z,78.53
2018-11-23T07:43:54.400Z,78.32
2018-11-23T07:46:21.725Z,78.36
2018-11-23T07:48:49.938Z,78.16
2018-11-23T07:51:17.596Z,78.19
2018-11-23T07:53:44.932Z,78.42
2018-11-23T07:56:12.230Z,78.26
2018-11-23T07:58:39.920Z,78.42
2018-11-23T08:01:07.880Z,78.49
2018-11-23T08:03:35.126Z,77.87
2018-11-23T08:06:02.710Z,77.73
2018-11-23T08:08:29.977Z,77.78
2018-11-23T08:10:56.317Z,77.35
2018-11-23T08:13:24.077Z,77.20
2018-11-23T08:15:51.354Z,76.56
2018-11-23T08:18:18.667Z,76.83
2018-11-23T08:20:46.411Z,76.24
2018-11-23T08:23:14.345Z,76.22
2018-11-23T08:25:42.672Z,76.23
2018-11-23T08:28:10.226Z,75.39
2018-11-23T08:30:39.105Z,74.89
2018-11-23T08:33:06.365Z,74.58
2018-11-23T08:35:34.015Z,74.08
2018-11-23T08:38:01.286Z,74.17
2018-11-23T08:40:28.699Z,74.80
2018-11-23T08:42:56.908Z,74.92
2018-11-23T08:45:25.967Z,74.75
2018-11-23T08:47:53.256Z,74.96
2018-11-23T08:50:22.317Z,74.95
2018-11-23T08:52:49.597Z,75.02
2018-11-23T08:55:17.572Z,74.86
2018-11-23T08:57:45.240Z,74.87
2018-11-23T09:00:13.829Z,74.52
2018-11-23T09:02:41.873Z,74.63
2018-11-23T09:05:09.441Z,74.65
2018-11-23T09:07:36.725Z,74.63
2018-11-23T09:10:05.337Z,74.59
2018-11-23T09:12:33.036Z,74.83
2018-11-23T09:15:00.352Z,74.38
2018-11-23T09:17:28.265Z,74.33
2018-11-23T09:19:55.884Z,74.42
2018-11-23T09:22:23.502Z,74.15
2018-11-23T09:24:50.541Z,74.26
2018-11-23T09:27:18.182Z,73.76
2018-11-23T09:29:45.467Z,73.57
2018-11-23T09:32:12.812Z,73.30
2018-11-23T09:34:40.805Z,73.19
2018-11-23T09:37:08.457Z,72.78
2018-11-23T09:39:35.828Z,72.70
2018-11-23T09:42:04.304Z,72.38
2018-11-23T09:44:31.654Z,71.56
2018-11-23T09:46:58.992Z,70.00
2018-11-23T09:49:26.610Z,67.06
2018-11-23T09:51:53.926Z,64.48
2018-11-23T09:54:21.213Z,61.69
2018-11-23T09:56:48.825Z,59.96
2018-11-23T09:59:16.130Z,57.85
2018-11-23T10:01:43.414Z,57.09
2018-11-23T10:04:11.013Z,55.67
2018-11-23T10:06:39.391Z,54.99
2018-11-23T10:09:06.676Z,54.11
2018-11-23T10:11:34.375Z,53.95
2018-11-23T10:14:01.908Z,54.32
2018-11-23T10:16:29.185Z,55.04
2018-11-23T10:18:56.793Z,54.26
2018-11-23T10:21:24.116Z,54.75
2018-11-23T10:23:51.485Z,53.80
2018-11-23T10:26:19.166Z,53.99
2018-11-23T10:28:46.513Z,54.07
2018-11-23T10:31:13.820Z,53.08
2018-11-23T10:33:41.525Z,53.18
2018-11-23T10:36:09.689Z,53.13
2018-11-23T10:38:36.972Z,53.25
2018-11-23T10:41:04.716Z,52.65
2018-11-23T10:43:31.994Z,52.63
2018-11-23T10:45:59.295Z,53.08
2018-11-23T10:48:26.891Z,52.84
2018-11-23T10:50:54.196Z,53.04
2018-11-23T10:53:21.521Z,52.89
2018-11-23T10:55:49.257Z,52.78
2018-11-23T10:58:17.141Z,52.57
2018-11-23T11:00:54.415Z,53.18
2018-11-23T11:03:33.569Z,52.50
2018-11-23T11:06:05.018Z,53.36
2018-11-23T11:08:32.719Z,52.90
2018-11-23T11:11:00.003Z,51.87
2018-11-23T11:13:27.287Z,51.99
2018-11-23T11:15:54.930Z,51.80
2018-11-23T11:18:22.213Z,51.62
2018-11-23T11:20:49.521Z,52.15
2018-11-23T11:23:17.252Z,52.15
2018-11-23T11:25:44.545Z,53.40
2018-11-23T11:28:11.820Z,53.97
2018-11-23T11:30:39.461Z,54.87
2018-11-23T11:33:06.726Z,55.01
2018-11-23T11:35:34.047Z,54.54
2018-11-23T11:38:01.826Z,55.82
2018-11-23T11:40:29.104Z,55.89
2018-11-23T11:42:56.414Z,56.79
2018-11-23T11:45:24.041Z,56.38
2018-11-23T11:47:51.427Z,57.33
2018-11-23T11:50:18.730Z,58.91
2018-11-23T11:52:47.718Z,59.00
2018-11-23T11:55:17.117Z,60.05
2018-11-23T11:57:45.665Z,60.81
2018-11-23T12:00:17.494Z,62.08
2018-11-23T12:02:44.787Z,62.96
2018-11-23T12:05:13.736Z,62.67
2018-11-23T12:07:41.406Z,63.87
2018-11-23T12:10:08.771Z,63.60
2018-11-23T12:12:36.072Z,63.60
2018-11-23T12:15:03.755Z,64.48
2018-11-23T12:17:33.693Z,65.35
2018-11-23T12:20:00.966Z,65.04
2018-11-23T12:22:28.716Z,66.32
2018-11-23T12:24:56.909Z,66.27
2018-11-23T12:27:24.255Z,66.70
2018-11-23T12:29:51.932Z,67.16
2018-11-23T12:32:19.250Z,67.08
2018-11-23T12:34:46.631Z,67.38
2018-11-23T12:37:14.325Z,67.04
2018-11-23T12:39:41.591Z,67.47
2018-11-23T12:42:08.845Z,67.60
2018-11-23T12:44:37.091Z,67.02
2018-11-23T12:47:04.385Z,67.27
2018-11-23T12:49:31.682Z,67.27
2018-11-23T12:51:59.273Z,67.18
2018-11-23T12:54:26.589Z,66.95
2018-11-23T12:56:54.816Z,66.80
2018-11-23T12:59:23.117Z,67.25
2018-11-23T13:01:50.404Z,67.13
2018-11-23T13:04:17.705Z,67.22
2018-11-23T13:06:45.422Z,67.33
2018-11-23T13:09:12.735Z,67.32
2018-11-23T13:11:41.226Z,67.38
2018-11-23T13:14:09.178Z,67.50
2018-11-23T13:16:36.468Z,67.29
2018-11-23T13:19:03.745Z,67.35
2018-11-23T13:21:31.404Z,67.27
2018-11-23T13:23:58.852Z,67.32
2018-11-23T13:26:26.128Z,67.95
2018-11-23T13:28:53.851Z,67.60
2018-11-23T13:31:21.144Z,67.68
2018-11-23T13:33:49.266Z,68.36
2018-11-23T13:36:17.762Z,68.29
2018-11-23T13:38:45.030Z,67.81
2018-11-23T13:41:12.328Z,67.74
2018-11-23T13:43:40.103Z,68.47
2018-11-23T13:46:07.383Z,68.52
2018-11-23T13:48:35.522Z,68.50
2018-11-23T13:51:03.272Z,68.19
2018-11-23T13:53:30.593Z,68.18
2018-11-23T13:55:57.992Z,67.86
2018-11-23T13:58:25.694Z,67.63
2018-11-23T14:00:52.978Z,68.14
2018-11-23T14:03:20.259Z,67.91
2018-11-23T14:05:47.917Z,67.46
2018-11-23T14:08:15.212Z,67.50
2018-11-23T14:10:43.497Z,67.37
2018-11-23T14:13:11.742Z,68.04
2018-11-23T14:15:38.894Z,67.73
2018-11-23T14:18:06.209Z,67.55
2018-11-23T14:20:34.721Z,67.30
2018-11-23T14:23:02.019Z,67.71
2018-11-23T14:25:31.428Z,67.79
2018-11-23T14:27:59.370Z,68.02
2018-11-23T14:30:28.733Z,68.20
2018-11-23T14:32:56.192Z,68.45
2018-11-23T14:35:25.367Z,68.61
2018-11-23T14:37:53.535Z,69.35
2018-11-23T14:40:20.868Z,69.41
2018-11-23T14:42:49.300Z,69.37
2018-11-23T14:45:17.526Z,69.76
2018-11-23T14:47:44.873Z,70.24
2018-11-23T14:50:13.519Z,70.46
2018-11-23T14:52:40.825Z,70.91
2018-11-23T14:55:08.115Z,71.13
2018-11-23T14:57:35.746Z,71.59
2018-11-23T15:00:05.690Z,71.59
2018-11-23T15:02:33.014Z,72.08
2018-11-23T15:05:02.098Z,71.93
2018-11-23T15:07:29.447Z,72.32
2018-11-23T15:09:56.802Z,73.02
2018-11-23T15:12:24.564Z,72.55
2018-11-23T15:14:51.857Z,72.60
2018-11-23T15:17:19.166Z,73.45
2018-11-23T15:19:46.477Z,73.34
2018-11-23T15:22:13.777Z,73.34
2018-11-23T15:24:44.918Z,72.65
2018-11-23T15:27:12.192Z,73.20
2018-11-23T15:29:39.477Z,73.47
2018-11-23T15:32:07.074Z,73.69
2018-11-23T15:34:34.349Z,73.80
2018-11-23T15:37:01.622Z,74.12
2018-11-23T15:39:29.251Z,73.78
2018-11-23T15:41:56.549Z,73.85
2018-11-23T15:44:23.845Z,73.84
2018-11-23T15:46:51.981Z,73.72
2018-11-23T15:49:19.644Z,74.05
2018-11-23T15:51:47.722Z,73.95
2018-11-23T15:54:16.198Z,74.30
2018-11-23T15:56:44.727Z,74.21
2018-11-23T15:59:14.157Z,74.37
2018-11-23T16:01:43.321Z,74.16
2018-11-23T16:04:12.282Z,73.92
2018-11-23T16:06:39.621Z,74.33
2018-11-23T16:09:07.427Z,74.45
2018-11-23T16:11:34.708Z,74.50
2018-11-23T16:14:02.064Z,74.83
2018-11-23T16:16:30.272Z,75.38
2018-11-23T16:18:57.629Z,75.58
2018-11-23T16:21:24.941Z,75.14
2018-11-23T16:23:56.556Z,75.44
2018-11-23T16:26:23.908Z,75.34
2018-11-23T16:28:51.230Z,75.68
2018-11-23T16:31:19.950Z,75.45
2018-11-23T16:33:47.271Z,75.90
2018-11-23T16:36:14.541Z,75.81
2018-11-23T16:38:42.236Z,75.95
2018-11-23T16:41:10.553Z,75.15
2018-11-23T16:43:37.824Z,75.44
2018-11-23T16:46:05.620Z,75.70
2018-11-23T16:48:34.319Z,76.27
2018-11-23T16:51:01.649Z,76.35
2018-11-23T16:53:29.742Z,76.24
2018-11-23T16:55:57.044Z,76.28
2018-11-23T16:58:24.416Z,76.01
2018-11-23T17:00:53.044Z,75.73
2018-11-23T17:03:21.677Z,75.71
2018-11-23T17:05:51.448Z,75.83
2018-11-23T17:08:19.612Z,75.34
2018-11-23T17:10:47.648Z,75.75
2018-11-23T17:13:16.303Z,75.28
2018-11-23T17:15:45.280Z,75.56
2018-11-23T17:18:13.225Z,75.48
2018-11-23T17:20:41.325Z,75.83
2018-11-23T17:23:09.996Z,75.52
2018-11-23T17:25:37.297Z,75.56
2018-11-23T17:28:06.007Z,75.17
2018-11-23T17:30:34.557Z,75.86
2018-11-23T17:33:01.874Z,75.22
2018-11-23T17:35:29.429Z,75.73
2018-11-23T17:37:57.192Z,75.80
2018-11-23T17:40:25.761Z,75.56
2018-11-23T17:42:53.200Z,75.92
2018-11-23T17:45:21.400Z,76.32
2018-11-23T17:47:48.828Z,76.22
2018-11-23T17:50:21.266Z,76.27
2018-11-23T17:52:49.413Z,76.54
2018-11-23T17:55:16.688Z,76.76
2018-11-23T17:57:45.293Z,76.94
2018-11-23T18:00:13.034Z,77.23
2018-11-23T18:02:40.439Z,77.34
2018-11-23T18:05:07.780Z,77.34
2018-11-23T18:07:35.890Z,76.91
2018-11-23T18:10:03.288Z,77.59
2018-11-23T18:12:30.562Z,77.30
2018-11-23T18:14:58.573Z,76.95
2018-11-23T18:17:25.840Z,77.43
2018-11-23T18:19:53.136Z,76.82
2018-11-23T18:22:20.748Z,77.08
2018-11-23T18:24:48.729Z,77.05
2018-11-23T18:27:16.019Z,76.87
2018-11-23T18:29:44.725Z,77.16
2018-11-23T18:32:12.003Z,77.46
2018-11-23T18:34:39.282Z,77.25
2018-11-23T18:37:06.905Z,77.71
2018-11-23T18:39:34.169Z,77.69
2018-11-23T18:42:02.549Z,77.78
2018-11-23T18:44:30.099Z,77.53
2018-11-23T18:46:57.663Z,77.51
2018-11-23T18:49:24.977Z,77.64
2018-11-23T18:51:53.682Z,77.90
2018-11-23T18:54:20.963Z,77.70
2018-11-23T18:56:48.230Z,77.80
2018-11-23T18:59:15.858Z,77.33
2018-11-23T19:01:43.496Z,77.75
2018-11-23T19:04:10.775Z,77.43
2018-11-23T19:06:38.453Z,77.56
2018-11-23T19:09:06.108Z,77.75
2018-11-23T19:11:33.386Z,77.64
2018-11-23T19:14:01.089Z,77.70
2018-11-23T19:16:28.396Z,77.90
2018-11-23T19:18:56.460Z,77.63
2018-11-23T19:21:24.013Z,77.42
2018-11-23T19:23:51.314Z,77.67
2018-11-23T19:26:19.229Z,77.41
2018-11-23T19:28:50.519Z,77.85
2018-11-23T19:31:17.818Z,77.43
2018-11-23T19:33:45.085Z,77.54
2018-11-23T19:36:12.708Z,77.15
2018-11-23T19:38:39.999Z,77.17
2018-11-23T19:41:07.360Z,77.05
2018-11-23T19:43:35.441Z,77.51
2018-11-23T19:46:02.798Z,77.45
2018-11-23T19:48:30.636Z,77.42
2018-11-23T19:50:58.252Z,77.51
2018-11-23T19:53:26.181Z,77.24
2018-11-23T19:55:54.434Z,77.29
2018-11-23T19:58:23.582Z,77.40
2018-11-23T20:00:51.552Z,77.47
2018-11-23T20:03:19.856Z,76.77
2018-11-23T20:05:48.479Z,76.94
2018-11-23T20:08:15.782Z,77.05
2018-11-23T20:10:43.062Z,77.10
2018-11-23T20:13:11.514Z,77.28
2018-11-23T20:15:38.793Z,77.44
2018-11-23T20:18:08.614Z,77.42
2018-11-23T20:20:35.870Z,77.25
2018-11-23T20:23:03.124Z,77.07
2018-11-23T20:25:30.797Z,77.38
2018-11-23T20:27:58.050Z,77.50
2018-11-23T20:30:25.413Z,77.35
2018-11-23T20:32:53.311Z,77.57
2018-11-23T20:35:21.321Z,77.80
2018-11-23T20:37:49.559Z,77.92
2018-11-23T20:40:17.182Z,77.97
2018-11-23T20:42:44.461Z,77.89
2018-11-23T20:45:12.289Z,77.88
2018-11-23T20:47:39.983Z,78.05
2018-11-23T20:50:07.260Z,78.00
2018-11-23T20:52:34.544Z,77.82
2018-11-23T20:55:02.121Z,78.23
2018-11-23T20:57:29.967Z,78.39
2018-11-23T20:59:57.269Z,78.47
2018-11-23T21:04:57.073Z,78.15
2018-11-23T21:07:24.364Z,78.37
2018-11-23T21:09:51.990Z,78.16
2018-11-23T21:12:19.506Z,78.33
2018-11-23T21:14:46.834Z,78.16
2018-11-23T21:17:14.609Z,78.37
2018-11-23T21:19:42.812Z,78.57
2018-11-23T21:22:10.417Z,78.19
2018-11-23T21:24:38.148Z,78.44
2018-11-23T21:27:05.407Z,78.35
2018-11-23T21:29:32.678Z,78.03
2018-11-23T21:32:00.345Z,78.18
2018-11-23T21:34:27.743Z,77.83
2018-11-23T21:36:55.003Z,78.06
2018-11-23T21:39:22.719Z,77.90
2018-11-23T21:41:49.993Z,77.92
2018-11-23T21:44:17.292Z,78.01
2018-11-23T21:46:44.853Z,77.99
2018-11-23T21:49:12.150Z,78.32
2018-11-23T21:51:39.431Z,78.15
2018-11-23T21:54:07.366Z,78.40
2018-11-23T21:56:34.638Z,78.26
2018-11-23T21:59:02.347Z,78.56
2018-11-23T22:01:31.634Z,78.55
2018-11-23T22:04:06.166Z,78.44
2018-11-23T22:06:27.093Z,78.38
2018-11-23T22:08:54.659Z,78.41
2018-11-23T22:11:21.921Z,78.14
2018-11-23T22:13:50.407Z,78.17
2018-11-23T22:16:19.959Z,78.24
2018-11-23T22:18:48.240Z,78.60
2018-11-23T22:21:15.524Z,78.53
2018-11-23T22:23:43.250Z,79.10
2018-11-23T22:26:10.516Z,79.30
2018-11-23T22:28:37.756Z,78.81
2018-11-23T22:31:05.441Z,79.12
2018-11-23T22:33:32.712Z,79.38
2018-11-23T22:35:59.968Z,79.50
2018-11-23T22:38:27.639Z,79.11
2018-11-23T22:40:54.925Z,79.28
2018-11-23T22:43:22.214Z,79.42
2018-11-23T22:45:49.765Z,79.19
2018-11-23T22:48:17.056Z,79.46
2018-11-23T22:50:44.329Z,79.47
2018-11-23T22:53:11.963Z,79.38
2018-11-23T22:55:40.370Z,79.41
2018-11-23T22:58:08.440Z,79.02
2018-11-23T23:00:38.740Z,79.06
2018-11-23T23:03:06.281Z,79.06
2018-11-23T23:05:33.679Z,78.75
2018-11-23T23:08:01.413Z,79.18
2018-11-23T23:10:28.677Z,79.15
2018-11-23T23:12:55.979Z,78.90
2018-11-23T23:15:23.672Z,79.02
2018-11-23T23:17:50.998Z,78.83
2018-11-23T23:20:18.263Z,79.03
2018-11-23T23:22:45.865Z,79.00
2018-11-23T23:25:13.144Z,79.20
2018-11-23T23:27:40.424Z,79.01
2018-11-23T23:30:08.592Z,79.12
2018-11-23T23:32:35.877Z,78.78
2018-11-23T23:35:03.235Z,78.73
2018-11-23T23:37:30.803Z,78.41
2018-11-23T23:39:58.089Z,78.65
2018-11-23T23:42:25.350Z,78.63
2018-11-23T23:44:52.961Z,78.68
2018-11-23T23:47:20.202Z,78.65
2018-11-23T23:49:47.447Z,78.96
2018-11-23T23:52:15.122Z,78.54
2018-11-23T23:54:42.393Z,78.63
2018-11-23T23:57:09.765Z,78.54
2018-11-23T23:59:37.490Z,78.62
